Time;durP1;ratioP1;P1;durP2;ratioP2;P2;SDS_P1;SDS_P2;PMS_P1;PMS_P2;Temp;Humidity;BMP_temperature;BMP_pressure;BME280_temperature;BME280_humidity;BME280_pressure;Samples;Min_cycle;Max_cycle;Signal;HPM_P1;HPM_P2
2021/11/10 00:00:04;;;;;;;;;;;;;;;14.87;73.63;102212.84;1057102;28;2052;-58
2021/11/10 00:00:53;;;;;;;;;;;;;;;14.88;73.04;102208.34;1058062;28;1952;-59
2021/11/10 00:01:42;;;;;;;;;;;;;;;14.88;73.04;102209.19;1058328;28;1501;-58
2021/11/10 00:02:31;;;;;;;;;;;;;;;14.87;72.93;102207.47;1054131;28;876;-57
2021/11/10 00:03:20;;;;;;;;;;;;;;;14.87;73.02;102206.59;1054227;28;851;-58
2021/11/10 00:04:09;;;;;;;;;;;;;;;14.88;73.53;102211.00;1057567;28;1531;-58
2021/11/10 00:04:58;;;;;;;;;;;;;;;14.86;73.08;102205.78;1058346;28;808;-59
2021/11/10 00:05:47;;;;;;;;;;;;;;;14.85;73.10;102206.72;1057664;28;1376;-59
2021/11/10 00:06:36;;;;;;;;;;;;;;;14.87;73.24;102211.97;1054015;28;881;-59
2021/11/10 00:07:25;;;;;;;;;;;;;;;14.86;73.46;102210.28;1049617;28;813;-59
2021/11/10 00:08:13;;;;;;;;;;;;;;;14.86;72.80;102210.28;1049623;28;834;-59
2021/11/10 00:09:02;;;;;;;;;;;;;;;14.86;72.93;102208.47;1053211;28;789;-59
2021/11/10 00:09:51;;;;;;;;;;;;;;;14.87;73.53;102209.28;1054168;28;1454;-59
2021/11/10 00:10:40;;;;;;;;;;;;;;;14.86;73.39;102212.97;1054162;28;734;-59
2021/11/10 00:11:29;;;;;;;;;;;;;;;14.85;73.13;102212.09;1054771;28;713;-59
2021/11/10 00:12:18;;;;;;;;;;;;;;;14.86;73.53;102210.28;1054835;28;732;-59
2021/11/10 00:13:19;;;;;;;;;;;;;;;14.86;73.39;102212.97;1054893;28;750;-59
2021/11/10 00:14:08;;;;;;;;;;;;;;;14.86;73.33;102219.19;1054850;28;1392;-58
2021/11/10 00:14:57;;;;;;;;;;;;;;;14.85;73.55;102214.78;1054861;28;799;-59
2021/11/10 00:15:46;;;;;;;;;;;;;;;14.84;73.21;102213.06;1055270;28;1415;-59
2021/11/10 00:16:35;;;;;;;;;;;;;;;14.84;73.33;102213.06;1059094;28;850;-59
2021/11/10 00:17:24;;;;;;;;;;;;;;;14.85;73.22;102208.53;1059024;28;819;-59
2021/11/10 00:18:14;;;;;;;;;;;;;;;14.85;73.47;102208.53;1054932;28;903;-59
2021/11/10 00:19:03;;;;;;;;;;;;;;;14.84;73.09;102205.00;1054866;28;1049;-59
2021/11/10 00:19:51;;;;;;;;;;;;;;;14.85;73.47;102211.22;1056909;28;1794;-59
2021/11/10 00:20:40;;;;;;;;;;;;;;;14.84;73.11;102213.06;1054821;28;758;-59
2021/11/10 00:21:29;;;;;;;;;;;;;;;14.85;73.09;102212.09;1054877;28;778;-59
2021/11/10 00:22:18;;;;;;;;;;;;;;;14.84;72.85;102205.00;1054947;28;841;-59
2021/11/10 00:23:07;;;;;;;;;;;;;;;14.84;73.53;102205.00;1054811;28;883;-59
2021/11/10 00:23:56;;;;;;;;;;;;;;;14.84;72.93;102201.44;1056805;28;1488;-59
2021/11/10 00:24:45;;;;;;;;;;;;;;;14.84;73.60;102205.00;1058954;28;825;-60
2021/11/10 00:25:34;;;;;;;;;;;;;;;14.84;73.61;102202.31;1059094;28;811;-59
2021/11/10 00:26:23;;;;;;;;;;;;;;;14.83;72.98;102197.91;1054952;28;840;-59
2021/11/10 00:27:11;;;;;;;;;;;;;;;14.84;72.88;102196.09;1054796;28;743;-59
2021/11/10 00:28:00;;;;;;;;;;;;;;;14.83;73.57;102200.59;1054587;28;1910;-59
2021/11/10 00:28:49;;;;;;;;;;;;;;;14.84;73.09;102204.13;1054909;28;948;-59
2021/11/10 00:29:38;;;;;;;;;;;;;;;14.83;73.38;102203.28;1054745;28;831;-59
2021/11/10 00:30:29;;;;;;;;;;;;;;;14.84;73.31;102202.31;1054816;28;832;-60
2021/11/10 00:31:17;;;;;;;;;;;;;;;14.84;73.48;102198.75;1054785;28;743;-59
2021/11/10 00:32:06;;;;;;;;;;;;;;;14.83;73.02;102203.28;1058138;28;1480;-59
2021/11/10 00:32:55;;;;;;;;;;;;;;;14.84;73.08;102199.63;1059033;28;743;-59
2021/11/10 00:33:44;;;;;;;;;;;;;;;14.83;73.05;102197.91;1058680;28;1394;-60
2021/11/10 00:34:34;;;;;;;;;;;;;;;14.83;73.08;102194.34;1055920;28;1784;-59
2021/11/10 00:35:23;;;;;;;;;;;;;;;14.83;72.79;102191.66;1059012;28;943;-59
2021/11/10 00:36:12;;;;;;;;;;;;;;;14.83;72.96;102189.84;1054804;28;1547;-59
2021/11/10 00:37:01;;;;;;;;;;;;;;;14.82;72.95;102190.81;1054802;28;748;-59
2021/11/10 00:37:50;;;;;;;;;;;;;;;14.83;72.98;102187.16;1055914;28;1430;-59
2021/11/10 00:38:39;;;;;;;;;;;;;;;14.83;73.42;102180.94;1058914;28;880;-58
2021/11/10 00:39:28;;;;;;;;;;;;;;;14.82;73.63;102190.81;1058800;28;1320;-57
2021/11/10 00:40:17;;;;;;;;;;;;;;;14.82;72.72;102180.06;1054781;28;803;-57
2021/11/10 00:41:06;;;;;;;;;;;;;;;14.83;73.56;102186.31;1054797;28;769;-58
2021/11/10 00:41:55;;;;;;;;;;;;;;;14.83;73.39;102176.44;1056406;28;1477;-58
2021/11/10 00:42:44;;;;;;;;;;;;;;;14.82;72.96;102180.06;1059067;28;876;-58
2021/11/10 00:43:33;;;;;;;;;;;;;;;14.82;73.06;102185.44;1059013;28;812;-58
2021/11/10 00:44:22;;;;;;;;;;;;;;;14.82;73.55;102180.06;1054636;28;1297;-58
2021/11/10 00:45:10;;;;;;;;;;;;;;;14.82;73.10;102180.06;1054743;28;730;-57
2021/11/10 00:45:59;;;;;;;;;;;;;;;14.81;73.42;102178.34;1057079;28;1406;-57
2021/11/10 00:46:48;;;;;;;;;;;;;;;14.81;73.51;102188.22;1054806;28;852;-58
2021/11/10 00:47:37;;;;;;;;;;;;;;;14.82;73.62;102180.06;1054715;28;1967;-57
2021/11/10 00:48:26;;;;;;;;;;;;;;;14.81;73.01;102189.06;1054649;28;749;-58
2021/11/10 00:49:15;;;;;;;;;;;;;;;14.80;73.43;102184.66;1054837;28;907;-57
2021/11/10 00:50:03;;;;;;;;;;;;;;;14.81;73.01;102178.34;1054675;28;1408;-58
2021/11/10 00:50:52;;;;;;;;;;;;;;;14.80;73.01;102176.63;1054838;28;864;-58
2021/11/10 00:51:41;;;;;;;;;;;;;;;14.82;73.55;102179.22;1054636;28;732;-60
2021/11/10 00:52:30;;;;;;;;;;;;;;;14.81;73.08;102183.72;1054745;28;821;-57
2021/11/10 00:53:19;;;;;;;;;;;;;;;14.80;73.41;102184.66;1054704;28;849;-59
2021/11/10 00:54:08;;;;;;;;;;;;;;;14.81;73.06;102182.84;1058155;28;1632;-59
2021/11/10 00:54:57;;;;;;;;;;;;;;;14.80;73.78;102187.34;1058922;28;746;-59
2021/11/10 00:55:46;;;;;;;;;;;;;;;14.81;73.14;102182.84;1058320;28;1405;-57
2021/11/10 00:56:35;;;;;;;;;;;;;;;14.80;73.14;102181.97;1054736;28;779;-59
2021/11/10 00:57:23;;;;;;;;;;;;;;;14.80;73.67;102176.63;1054743;28;819;-59
2021/11/10 00:58:12;;;;;;;;;;;;;;;14.81;73.60;102177.47;1054687;28;792;-59
2021/11/10 00:59:01;;;;;;;;;;;;;;;14.80;73.12;102184.66;1054742;28;740;-59
2021/11/10 00:59:50;;;;;;;;;;;;;;;14.81;73.55;102177.47;1055860;28;1377;-59
2021/11/10 01:00:39;;;;;;;;;;;;;;;14.79;73.43;102169.53;1058861;28;886;-59
2021/11/10 01:01:28;;;;;;;;;;;;;;;14.80;73.04;102167.69;1058875;28;880;-59
2021/11/10 01:02:17;;;;;;;;;;;;;;;14.79;73.05;102174.88;1054471;28;843;-58
2021/11/10 01:03:05;;;;;;;;;;;;;;;14.79;73.51;102172.19;1054449;28;748;-58
2021/11/10 01:03:54;;;;;;;;;;;;;;;14.80;73.75;102170.38;1056171;28;1411;-59
2021/11/10 01:04:43;;;;;;;;;;;;;;;14.79;73.06;102169.53;1058867;28;861;-60
2021/11/10 01:05:33;;;;;;;;;;;;;;;14.80;73.43;102170.38;1058898;28;809;-58
2021/11/10 01:06:22;;;;;;;;;;;;;;;14.80;73.25;102167.69;1054752;28;840;-58
2021/11/10 01:07:11;;;;;;;;;;;;;;;14.80;73.14;102162.34;1054680;28;791;-58
2021/11/10 01:08:00;;;;;;;;;;;;;;;14.79;73.61;102166.84;1056983;28;1969;-58
2021/11/10 01:08:48;;;;;;;;;;;;;;;14.80;73.28;102165.03;1058920;28;786;-58
2021/11/10 01:09:43;;;;;;;;;;;;;;;14.79;73.48;102164.16;1058953;28;888;-58
2021/11/10 01:10:31;;;;;;;;;;;;;;;14.79;73.21;102161.47;1054722;28;755;-58
2021/11/10 01:11:20;;;;;;;;;;;;;;;14.79;73.39;102157.91;1054711;28;808;-59
2021/11/10 01:12:09;;;;;;;;;;;;;;;14.79;73.23;102153.41;1058384;28;1643;-60
2021/11/10 01:12:58;;;;;;;;;;;;;;;14.79;73.55;102152.56;1054525;28;1279;-60
2021/11/10 01:13:47;;;;;;;;;;;;;;;14.79;73.97;102153.41;1054790;28;1311;-59
2021/11/10 01:14:36;;;;;;;;;;;;;;;14.80;73.68;102148.91;1054554;28;1383;-59
2021/11/10 01:15:25;;;;;;;;;;;;;;;14.80;73.79;102148.91;1054630;28;1468;-59
2021/11/10 01:16:14;;;;;;;;;;;;;;;14.80;73.81;102152.47;1057325;28;1536;-59
2021/11/10 01:17:03;;;;;;;;;;;;;;;14.79;73.77;102153.41;1054532;28;1410;-59
2021/11/10 01:17:52;;;;;;;;;;;;;;;14.80;73.19;102151.59;1054362;28;1544;-59
2021/11/10 01:18:40;;;;;;;;;;;;;;;14.79;73.46;102144.50;1054586;28;1366;-59
2021/11/10 01:19:29;;;;;;;;;;;;;;;14.79;73.17;102153.41;1054426;28;1488;-59
2021/11/10 01:20:18;;;;;;;;;;;;;;;14.79;73.91;102156.09;1054586;28;1289;-59
2021/11/10 01:21:07;;;;;;;;;;;;;;;14.80;73.58;102148.91;1054582;28;1358;-60
2021/11/10 01:21:56;;;;;;;;;;;;;;;14.79;73.96;102156.09;1054343;28;1409;-59
2021/11/10 01:22:45;;;;;;;;;;;;;;;14.79;74.16;102150.72;1057401;28;1353;-59
2021/11/10 01:23:34;;;;;;;;;;;;;;;14.80;73.98;102146.22;1057261;28;1625;-59
2021/11/10 01:24:23;;;;;;;;;;;;;;;14.79;73.84;102152.56;1054487;28;1512;-59
2021/11/10 01:25:12;;;;;;;;;;;;;;;14.79;73.88;102153.41;1055507;28;1344;-59
2021/11/10 01:26:01;;;;;;;;;;;;;;;14.79;73.20;102141.81;1056756;28;1236;-59
2021/11/10 01:26:50;;;;;;;;;;;;;;;14.79;73.68;102147.19;1054578;28;1313;-59
2021/11/10 01:27:38;;;;;;;;;;;;;;;14.79;73.92;102144.50;1054350;28;1961;-59
2021/11/10 01:28:28;;;;;;;;;;;;;;;14.79;73.23;102141.81;1054464;28;1365;-60
2021/11/10 01:29:16;;;;;;;;;;;;;;;14.78;74.10;102146.31;1054458;28;1397;-59
2021/11/10 01:30:05;;;;;;;;;;;;;;;14.78;73.53;102140.97;1054430;28;1411;-59
2021/11/10 01:30:54;;;;;;;;;;;;;;;14.78;73.45;102145.47;1055749;28;1507;-59
2021/11/10 01:31:43;;;;;;;;;;;;;;;14.78;74.27;102140.97;1054598;28;1365;-60
2021/11/10 01:32:32;;;;;;;;;;;;;;;14.78;73.47;102140.09;1054863;28;1721;-60
2021/11/10 01:33:21;;;;;;;;;;;;;;;14.77;73.93;102141.91;1056809;28;1373;-60
2021/11/10 01:34:10;;;;;;;;;;;;;;;14.78;73.59;102138.28;1054719;28;1524;-60
2021/11/10 01:34:59;;;;;;;;;;;;;;;14.77;73.44;102136.53;1056477;28;1319;-60
2021/11/10 01:35:48;;;;;;;;;;;;;;;14.78;73.52;102127.53;1054809;28;1389;-60
2021/11/10 01:36:37;;;;;;;;;;;;;;;14.77;73.45;102123.13;1057089;28;1533;-60
2021/11/10 01:37:26;;;;;;;;;;;;;;;14.76;73.33;102132.13;1057302;28;1322;-59
2021/11/10 01:38:15;;;;;;;;;;;;;;;14.78;73.62;102118.63;1057184;28;1418;-60
2021/11/10 01:39:04;;;;;;;;;;;;;;;14.77;73.44;102122.25;1054469;28;759;-60
2021/11/10 01:39:52;;;;;;;;;;;;;;;14.77;73.67;102117.75;1057794;28;1296;-60
2021/11/10 01:40:41;;;;;;;;;;;;;;;14.77;74.09;102120.44;1054406;28;1267;-60
2021/11/10 01:41:30;;;;;;;;;;;;;;;14.77;73.19;102122.25;1054484;28;1564;-60
2021/11/10 01:42:19;;;;;;;;;;;;;;;14.77;73.34;102112.41;1054373;28;1389;-60
2021/11/10 01:43:15;;;;;;;;;;;;;;;14.77;73.48;102115.06;1054438;28;1389;-60
2021/11/10 01:44:04;;;;;;;;;;;;;;;14.77;73.83;102107.03;1054350;28;1483;-60
2021/11/10 01:44:53;;;;;;;;;;;;;;;14.77;73.52;102100.78;1054360;28;1680;-60
2021/11/10 01:45:42;;;;;;;;;;;;;;;14.77;73.42;102103.47;1054487;28;1389;-60
2021/11/10 01:46:32;;;;;;;;;;;;;;;14.76;73.99;102105.31;1054276;28;1441;-60
2021/11/10 01:47:21;;;;;;;;;;;;;;;14.76;73.54;102099.94;1054532;28;1357;-60
2021/11/10 01:48:09;;;;;;;;;;;;;;;14.77;73.94;102103.47;1055188;28;1498;-60
2021/11/10 01:48:58;;;;;;;;;;;;;;;14.76;73.97;102094.56;1056335;28;1397;-60
2021/11/10 01:49:47;;;;;;;;;;;;;;;14.77;73.48;102095.44;1054703;28;1698;-60
2021/11/10 01:50:36;;;;;;;;;;;;;;;14.76;73.42;102091.88;1054394;28;1333;-60
2021/11/10 01:51:25;;;;;;;;;;;;;;;14.76;73.44;102085.66;1054516;28;1323;-60
2021/11/10 01:52:14;;;;;;;;;;;;;;;14.76;74.10;102077.59;1055709;28;1487;-60
2021/11/10 01:53:03;;;;;;;;;;;;;;;14.76;73.90;102075.78;1054476;28;1385;-60
2021/11/10 01:53:52;;;;;;;;;;;;;;;14.75;73.96;102079.41;1055370;28;1291;-60
2021/11/10 01:54:41;;;;;;;;;;;;;;;14.75;73.71;102082.09;1054367;28;1343;-60
2021/11/10 01:55:30;;;;;;;;;;;;;;;14.75;74.03;102079.41;1054365;28;1576;-60
2021/11/10 01:56:19;;;;;;;;;;;;;;;14.75;74.15;102082.09;1054431;28;1381;-60
2021/11/10 01:57:08;;;;;;;;;;;;;;;14.75;73.40;102074.06;1057161;28;1352;-60
2021/11/10 01:57:57;;;;;;;;;;;;;;;14.76;73.71;102080.28;1054797;28;1598;-60
2021/11/10 01:58:46;;;;;;;;;;;;;;;14.77;73.94;102073.97;1057096;28;1491;-60
2021/11/10 01:59:35;;;;;;;;;;;;;;;14.75;73.65;102071.38;1057272;28;1623;-59
2021/11/10 02:00:24;;;;;;;;;;;;;;;14.76;73.53;102070.41;1054391;28;1281;-60
2021/11/10 02:01:12;;;;;;;;;;;;;;;14.75;74.26;102071.38;1054986;28;1427;-60
2021/11/10 02:02:01;;;;;;;;;;;;;;;14.75;74.04;102070.50;1056596;28;1396;-59
2021/11/10 02:02:51;;;;;;;;;;;;;;;14.75;73.93;102071.38;1054444;28;1577;-60
2021/11/10 02:03:40;;;;;;;;;;;;;;;14.75;74.05;102068.69;1057162;28;1469;-59
2021/11/10 02:04:29;;;;;;;;;;;;;;;14.75;73.62;102065.13;1054261;28;1351;-60
2021/11/10 02:05:18;;;;;;;;;;;;;;;14.75;73.55;102067.81;1057083;28;1425;-59
2021/11/10 02:06:06;;;;;;;;;;;;;;;14.75;73.52;102070.50;1056283;28;1482;-59
2021/11/10 02:06:55;;;;;;;;;;;;;;;14.76;73.46;102066.88;1054689;28;1302;-59
2021/11/10 02:07:44;;;;;;;;;;;;;;;14.76;74.02;102061.50;1055513;28;2867;-60
2021/11/10 02:08:33;;;;;;;;;;;;;;;14.75;73.33;102066.00;1057185;28;1695;-60
2021/11/10 02:09:23;;;;;;;;;;;;;;;14.75;73.57;102057.94;1056912;28;1334;-60
2021/11/10 02:10:11;;;;;;;;;;;;;;;14.76;74.13;102057.00;1054490;28;1492;-60
2021/11/10 02:11:00;;;;;;;;;;;;;;;14.75;74.03;102060.63;1056657;28;1386;-59
2021/11/10 02:11:49;;;;;;;;;;;;;;;14.75;73.65;102052.59;1058320;28;1734;-60
2021/11/10 02:12:38;;;;;;;;;;;;;;;14.74;73.40;102045.50;1054141;28;833;-60
2021/11/10 02:13:26;;;;;;;;;;;;;;;14.76;73.89;102056.13;1053953;28;786;-60
2021/11/10 02:14:15;;;;;;;;;;;;;;;14.75;74.02;102043.69;1053393;28;1455;-60
2021/11/10 02:15:04;;;;;;;;;;;;;;;14.75;73.30;102041.84;1054398;28;709;-60
2021/11/10 02:15:53;;;;;;;;;;;;;;;14.75;74.27;102039.16;1055966;28;1426;-59
2021/11/10 02:16:42;;;;;;;;;;;;;;;14.75;73.63;102046.34;1058600;28;668;-59
2021/11/10 02:17:31;;;;;;;;;;;;;;;14.75;73.69;102044.53;1058594;28;926;-60
2021/11/10 02:18:20;;;;;;;;;;;;;;;14.74;73.47;102045.50;1054131;28;854;-60
2021/11/10 02:19:09;;;;;;;;;;;;;;;14.75;73.49;102052.59;1054112;28;799;-60
2021/11/10 02:19:57;;;;;;;;;;;;;;;14.75;74.22;102049.03;1057674;28;944;-61
2021/11/10 02:20:46;;;;;;;;;;;;;;;14.75;74.36;102046.34;1058631;28;722;-61
2021/11/10 02:21:37;;;;;;;;;;;;;;;14.75;74.18;102055.28;1058632;28;748;-59
2021/11/10 02:22:26;;;;;;;;;;;;;;;14.74;73.70;102053.53;1054378;28;924;-60
2021/11/10 02:23:16;;;;;;;;;;;;;;;14.75;74.09;102051.72;1054295;28;741;-59
2021/11/10 02:24:05;;;;;;;;;;;;;;;14.74;73.84;102056.22;1054469;28;1442;-60
2021/11/10 02:24:54;;;;;;;;;;;;;;;14.75;73.72;102060.63;1052777;28;1332;-60
2021/11/10 02:25:42;;;;;;;;;;;;;;;14.75;73.79;102060.63;1053881;28;1384;-60
2021/11/10 02:26:31;;;;;;;;;;;;;;;14.76;73.71;102058.81;1056190;28;1595;-60
2021/11/10 02:27:27;;;;;;;;;;;;;;;14.75;73.55;102054.41;1056266;28;1350;-60
2021/11/10 02:28:15;;;;;;;;;;;;;;;14.75;73.92;102062.47;1057012;28;1565;-60
2021/11/10 02:29:05;;;;;;;;;;;;;;;14.74;73.60;102056.22;1056900;28;1427;-60
2021/11/10 02:29:53;;;;;;;;;;;;;;;14.74;73.63;102061.59;1057538;28;1378;-60
2021/11/10 02:30:42;;;;;;;;;;;;;;;14.74;73.75;102058.03;1054220;28;1693;-61
2021/11/10 02:31:32;;;;;;;;;;;;;;;14.75;74.12;102065.13;1054268;28;1572;-60
2021/11/10 02:32:20;;;;;;;;;;;;;;;14.75;74.23;102060.63;1054233;28;1481;-60
2021/11/10 02:33:09;;;;;;;;;;;;;;;14.75;73.51;102070.50;1057078;28;1336;-59
2021/11/10 02:33:58;;;;;;;;;;;;;;;14.74;73.72;102061.59;1051782;28;1492;-60
2021/11/10 02:34:46;;;;;;;;;;;;;;;14.75;74.10;102065.13;1053905;28;1620;-59
2021/11/10 02:35:35;;;;;;;;;;;;;;;14.74;73.81;102072.31;1053452;28;830;-59
2021/11/10 02:36:24;;;;;;;;;;;;;;;14.73;74.46;102073.28;1054344;28;847;-59
2021/11/10 02:37:13;;;;;;;;;;;;;;;14.74;74.08;102071.47;1054283;28;807;-60
2021/11/10 02:38:02;;;;;;;;;;;;;;;14.74;73.65;102072.31;1056979;28;1342;-59
2021/11/10 02:38:51;;;;;;;;;;;;;;;14.73;74.27;102067.91;1058528;28;873;-59
2021/11/10 02:39:40;;;;;;;;;;;;;;;14.74;73.65;102063.41;1058503;28;694;-60
2021/11/10 02:40:29;;;;;;;;;;;;;;;14.73;74.08;102067.91;1054320;28;941;-60
2021/11/10 02:41:18;;;;;;;;;;;;;;;14.73;74.13;102070.59;1054383;28;874;-60
2021/11/10 02:42:06;;;;;;;;;;;;;;;14.73;73.71;102067.91;1057669;28;1553;-61
2021/11/10 02:42:55;;;;;;;;;;;;;;;14.73;73.66;102059.88;1058557;28;798;-60
2021/11/10 02:43:44;;;;;;;;;;;;;;;14.73;73.74;102067.91;1058107;28;1457;-60
2021/11/10 02:44:33;;;;;;;;;;;;;;;14.73;73.73;102062.56;1054080;28;1238;-61
2021/11/10 02:45:22;;;;;;;;;;;;;;;14.73;74.16;102056.31;1058605;28;839;-59
2021/11/10 02:46:11;;;;;;;;;;;;;;;14.73;73.83;102059.00;1058504;28;1607;-58
2021/11/10 02:47:00;;;;;;;;;;;;;;;14.73;74.18;102056.31;1054214;28;948;-59
2021/11/10 02:47:49;;;;;;;;;;;;;;;14.72;73.76;102060.81;1055163;28;1898;-60
2021/11/10 02:48:38;;;;;;;;;;;;;;;14.73;74.28;102061.69;1058495;28;800;-59
2021/11/10 02:49:27;;;;;;;;;;;;;;;14.72;73.73;102054.59;1058352;28;1063;-60
2021/11/10 02:50:16;;;;;;;;;;;;;;;14.73;73.91;102053.63;1054305;28;819;-59
2021/11/10 02:51:05;;;;;;;;;;;;;;;14.72;74.25;102052.78;1054161;28;737;-59
2021/11/10 02:51:54;;;;;;;;;;;;;;;14.72;73.85;102063.50;1055964;28;1406;-59
2021/11/10 02:52:43;;;;;;;;;;;;;;;14.73;74.28;102061.69;1058555;28;808;-60
2021/11/10 02:53:32;;;;;;;;;;;;;;;14.72;73.91;102070.69;1056112;28;1625;-60
2021/11/10 02:54:21;;;;;;;;;;;;;;;14.71;74.11;102067.16;1054186;28;1389;-60
2021/11/10 02:55:10;;;;;;;;;;;;;;;14.71;74.37;102064.47;1055536;28;1734;-60
2021/11/10 02:55:59;;;;;;;;;;;;;;;14.71;73.63;102067.16;1056507;28;1559;-59
2021/11/10 02:56:47;;;;;;;;;;;;;;;14.71;73.67;102063.59;1055241;28;1542;-59
2021/11/10 02:57:36;;;;;;;;;;;;;;;14.71;74.20;102064.47;1054118;28;1357;-59
2021/11/10 02:58:25;;;;;;;;;;;;;;;14.72;73.53;102066.19;1056994;28;1421;-59
2021/11/10 02:59:14;;;;;;;;;;;;;;;14.72;74.28;102062.66;1053860;28;1344;-60
2021/11/10 03:00:03;;;;;;;;;;;;;;;14.71;73.40;102059.09;1051153;28;1489;-60
2021/11/10 03:00:52;;;;;;;;;;;;;;;14.70;73.86;102057.38;1057558;28;1092;-59
2021/11/10 03:01:41;;;;;;;;;;;;;;;14.72;73.93;102059.97;1058505;28;913;-59
2021/11/10 03:02:30;;;;;;;;;;;;;;;14.71;74.20;102059.09;1054284;28;738;-59
2021/11/10 03:03:19;;;;;;;;;;;;;;;14.72;73.69;102060.81;1054240;28;837;-57
2021/11/10 03:04:08;;;;;;;;;;;;;;;14.70;74.37;102062.75;1054101;28;949;-58
2021/11/10 03:04:57;;;;;;;;;;;;;;;14.70;74.07;102060.06;1054245;28;932;-58
2021/11/10 03:05:46;;;;;;;;;;;;;;;14.71;73.42;102058.22;1054560;28;1393;-58
2021/11/10 03:06:34;;;;;;;;;;;;;;;14.71;73.70;102059.09;1058477;28;817;-59
2021/11/10 03:07:23;;;;;;;;;;;;;;;14.70;74.02;102061.88;1058377;28;907;-58
2021/11/10 03:08:12;;;;;;;;;;;;;;;14.69;74.23;102061.00;1054947;28;1941;-59
2021/11/10 03:09:01;;;;;;;;;;;;;;;14.69;73.93;102066.38;1054255;28;765;-59
2021/11/10 03:09:50;;;;;;;;;;;;;;;14.69;73.73;102058.31;1054161;28;1362;-59
2021/11/10 03:10:39;;;;;;;;;;;;;;;14.70;73.78;102056.50;1054259;28;689;-59
2021/11/10 03:11:28;;;;;;;;;;;;;;;14.69;73.53;102061.00;1054260;28;799;-59
2021/11/10 03:12:17;;;;;;;;;;;;;;;14.68;73.88;102062.00;1054263;28;662;-58
2021/11/10 03:13:06;;;;;;;;;;;;;;;14.67;74.16;102060.28;1054252;28;853;-59
2021/11/10 03:13:55;;;;;;;;;;;;;;;14.68;73.55;102059.31;1055940;28;1442;-59
2021/11/10 03:14:44;;;;;;;;;;;;;;;14.68;74.29;102053.94;1058500;28;854;-59
2021/11/10 03:15:33;;;;;;;;;;;;;;;14.68;74.07;102056.63;1058449;28;684;-59
2021/11/10 03:16:22;;;;;;;;;;;;;;;14.67;73.86;102060.28;1054044;28;881;-59
2021/11/10 03:17:11;;;;;;;;;;;;;;;14.67;73.57;102060.28;1054348;28;755;-59
2021/11/10 03:17:59;;;;;;;;;;;;;;;14.67;73.94;102057.59;1056620;28;1462;-59
2021/11/10 03:18:48;;;;;;;;;;;;;;;14.67;74.19;102060.28;1058456;28;808;-59
2021/11/10 03:19:37;;;;;;;;;;;;;;;14.67;74.42;102068.31;1058408;28;820;-58
2021/11/10 03:20:26;;;;;;;;;;;;;;;14.67;74.19;102067.47;1053850;28;825;-59
2021/11/10 03:21:15;;;;;;;;;;;;;;;14.66;74.16;102058.56;1053980;28;846;-58
2021/11/10 03:22:03;;;;;;;;;;;;;;;14.67;73.54;102071.00;1057060;28;1593;-59
2021/11/10 03:22:52;;;;;;;;;;;;;;;14.67;73.87;102057.59;1058420;28;889;-59
2021/11/10 03:23:41;;;;;;;;;;;;;;;14.66;73.87;102055.88;1054249;28;862;-59
2021/11/10 03:24:30;;;;;;;;;;;;;;;14.67;73.91;102059.41;1054134;28;783;-59
2021/11/10 03:25:19;;;;;;;;;;;;;;;14.67;74.08;102056.72;1054242;28;849;-58
2021/11/10 03:26:07;;;;;;;;;;;;;;;14.65;74.11;102064.88;1057685;28;1603;-59
2021/11/10 03:26:56;;;;;;;;;;;;;;;14.66;73.50;102061.22;1058410;28;812;-59
2021/11/10 03:27:46;;;;;;;;;;;;;;;14.65;74.08;102064.88;1057816;28;1894;-59
2021/11/10 03:28:34;;;;;;;;;;;;;;;14.66;73.96;102065.72;1054134;28;956;-59
2021/11/10 03:29:24;;;;;;;;;;;;;;;14.66;73.95;102063.91;1054278;28;850;-59
2021/11/10 03:30:12;;;;;;;;;;;;;;;14.65;74.03;102061.31;1054185;28;788;-59
2021/11/10 03:31:01;;;;;;;;;;;;;;;14.65;74.40;102069.38;1054144;28;821;-59
2021/11/10 03:31:50;;;;;;;;;;;;;;;14.64;73.68;102063.16;1055342;28;1407;-59
2021/11/10 03:32:41;;;;;;;;;;;;;;;14.65;73.56;102058.66;1058329;28;805;-59
2021/11/10 03:33:30;;;;;;;;;;;;;;;14.65;73.66;102059.50;1058342;28;678;-58
2021/11/10 03:34:20;;;;;;;;;;;;;;;14.65;73.67;102053.28;1054074;28;960;-58
2021/11/10 03:35:09;;;;;;;;;;;;;;;14.65;74.40;102064.00;1054241;28;815;-59
2021/11/10 03:35:58;;;;;;;;;;;;;;;14.65;73.78;102058.66;1056357;28;1581;-60
2021/11/10 03:36:47;;;;;;;;;;;;;;;14.64;73.37;102060.47;1058388;28;951;-59
2021/11/10 03:37:36;;;;;;;;;;;;;;;14.64;74.18;102057.78;1058355;28;781;-59
2021/11/10 03:38:24;;;;;;;;;;;;;;;14.64;74.07;102056.91;1054289;28;896;-59
2021/11/10 03:39:14;;;;;;;;;;;;;;;14.64;74.09;102060.47;1054116;28;938;-59
2021/11/10 03:40:02;;;;;;;;;;;;;;;14.63;73.63;102050.69;1054119;28;1610;-60
2021/11/10 03:40:52;;;;;;;;;;;;;;;14.64;74.19;102056.91;1054204;28;914;-59
2021/11/10 03:41:41;;;;;;;;;;;;;;;14.64;73.37;102055.09;1054168;28;768;-60
2021/11/10 03:42:29;;;;;;;;;;;;;;;14.64;74.21;102054.22;1054153;28;672;-59
2021/11/10 03:43:18;;;;;;;;;;;;;;;14.63;73.55;102058.72;1054072;28;950;-59
2021/11/10 03:44:07;;;;;;;;;;;;;;;14.63;73.85;102058.72;1054609;28;1983;-59
2021/11/10 03:44:56;;;;;;;;;;;;;;;14.63;73.74;102061.41;1054177;28;821;-59
2021/11/10 03:45:45;;;;;;;;;;;;;;;14.63;73.98;102064.09;1055386;28;1421;-59
2021/11/10 03:46:34;;;;;;;;;;;;;;;14.64;74.01;102060.47;1056602;28;1549;-60
2021/11/10 03:47:22;;;;;;;;;;;;;;;14.63;74.14;102069.47;1054959;28;799;-59
2021/11/10 03:48:12;;;;;;;;;;;;;;;14.63;73.70;102060.56;1058997;28;1902;-59
2021/11/10 03:49:01;;;;;;;;;;;;;;;14.64;73.85;102073.00;1059241;28;744;-59
2021/11/10 03:49:50;;;;;;;;;;;;;;;14.63;73.36;102060.56;1058077;28;1441;-60
2021/11/10 03:50:39;;;;;;;;;;;;;;;14.62;73.99;102059.69;1054977;28;644;-60
2021/11/10 03:51:28;;;;;;;;;;;;;;;14.62;74.39;102059.69;1054951;28;759;-59
2021/11/10 03:52:17;;;;;;;;;;;;;;;14.63;73.95;102060.56;1054996;28;703;-59
2021/11/10 03:53:06;;;;;;;;;;;;;;;14.62;74.10;102059.69;1054986;28;720;-59
2021/11/10 03:53:55;;;;;;;;;;;;;;;14.62;74.14;102062.38;1056808;28;1395;-59
2021/11/10 03:54:44;;;;;;;;;;;;;;;14.62;74.23;102059.69;1059184;28;879;-59
2021/11/10 03:55:36;;;;;;;;;;;;;;;14.61;74.32;102055.28;1059131;28;778;-60
2021/11/10 03:56:24;;;;;;;;;;;;;;;14.61;74.01;102063.34;1054977;28;755;-59
2021/11/10 03:57:13;;;;;;;;;;;;;;;14.62;73.38;102066.88;1054949;28;684;-59
2021/11/10 03:58:02;;;;;;;;;;;;;;;14.62;74.18;102064.19;1057736;28;1444;-59
2021/11/10 03:58:51;;;;;;;;;;;;;;;14.62;73.61;102072.25;1059247;28;947;-59
2021/11/10 03:59:40;;;;;;;;;;;;;;;14.61;74.15;102068.69;1054514;28;803;-59
2021/11/10 04:00:28;;;;;;;;;;;;;;;14.62;74.07;102062.38;1050408;28;771;-59
2021/11/10 04:01:17;;;;;;;;;;;;;;;14.62;74.28;102069.56;1053794;28;1427;-59
2021/11/10 04:02:06;;;;;;;;;;;;;;;14.60;74.15;102061.59;1058219;28;1492;-59
2021/11/10 04:02:55;;;;;;;;;;;;;;;14.60;74.14;102072.34;1059150;28;914;-59
2021/11/10 04:03:44;;;;;;;;;;;;;;;14.61;73.80;102063.34;1058899;28;1441;-59
2021/11/10 04:04:33;;;;;;;;;;;;;;;14.61;73.52;102062.47;1055009;28;1858;-59
2021/11/10 04:05:22;;;;;;;;;;;;;;;14.60;73.63;102056.25;1055013;28;856;-59
2021/11/10 04:06:11;;;;;;;;;;;;;;;14.59;74.27;102046.47;1058844;28;1410;-59
2021/11/10 04:07:00;;;;;;;;;;;;;;;14.59;73.79;102057.19;1054937;28;782;-59
2021/11/10 04:07:48;;;;;;;;;;;;;;;14.60;74.19;102050.88;1055684;28;1906;-59
2021/11/10 04:08:37;;;;;;;;;;;;;;;14.59;74.28;102047.31;1059165;28;816;-59
2021/11/10 04:09:26;;;;;;;;;;;;;;;14.59;73.88;102049.16;1059016;28;846;-60
2021/11/10 04:10:15;;;;;;;;;;;;;;;14.60;74.19;102050.88;1054888;28;896;-59
2021/11/10 04:11:04;;;;;;;;;;;;;;;14.59;73.30;102050.00;1054920;28;740;-59
2021/11/10 04:11:53;;;;;;;;;;;;;;;14.60;74.17;102056.25;1056420;28;1521;-60
2021/11/10 04:12:42;;;;;;;;;;;;;;;14.60;74.14;102056.25;1059076;28;798;-59
2021/11/10 04:13:31;;;;;;;;;;;;;;;14.59;73.44;102052.69;1059146;28;871;-59
2021/11/10 04:14:20;;;;;;;;;;;;;;;14.60;74.10;102056.25;1054867;28;894;-59
2021/11/10 04:15:09;;;;;;;;;;;;;;;14.59;73.36;102052.69;1054929;28;760;-59
2021/11/10 04:15:58;;;;;;;;;;;;;;;14.60;74.12;102053.56;1056991;28;1428;-59
2021/11/10 04:16:46;;;;;;;;;;;;;;;14.60;73.94;102053.56;1058988;28;952;-59